Nearby METAR Reports

 

K1V4 - St. Johnsbury, Vermont, USA
Distance from station: NNW 15mi, 24km
Updated: 11/27/2021 6:54am

 
Temperature: 25°F , -4°C
Dew Point: 19°F , -7°C
Humidity: 80%
Barometer: 29.56 inHg , 1001 hPa
2021/11/27 11:54 K1V4 271154Z AUTO M04/M07 A2956 RMK AO1 SLP021 60001 70028 T10391067 11006 21039 52018
KHIE - Whitefield, New Hampshire, USA
Distance from station: ENE 21mi, 34km
Updated: 11/27/2021 6:52am
Light snow, Overcast
Light snow, Overcast
 Wind from W
Wind: W 12 mph , 19 km/h, Gust: 22 mph , 35 km/h
Temperature: 25°F , -4°C
Wind Chill: 14°F , -10°C
Dew Point: 19°F , -7°C
Humidity: 80%
Barometer: 29.53 inHg , 1000 hPa
Summary: Light Snow
Clouds: Overcast
Visibility: 7 miles , 11 km
Cloud details: Overcast 1600 ft
2021/11/27 11:52 KHIE 271152Z AUTO 27010G19KT 7SM -SN OVC016 M04/M07 A2953 RMK AO2 SLP013 P0000 60000 70019 T10441067 11011 21044 53020
KCDA - Lyndonville, Vermont, USA
Distance from station: NNW 25mi, 40km
Updated: 11/27/2021 7:15am
Light snow, Overcast
Light snow, Overcast
 Wind from WSW
Wind: WSW 16 mph , 26 km/h, Gust: 21 mph , 33 km/h
Temperature: 23°F , -5°C
Wind Chill: 10°F , -12°C
Dew Point: 19°F , -7°C
Humidity: 86%
Barometer: 29.56 inHg , 1001 hPa
Summary: Light Snow
Clouds: Overcast
Visibility: 3 miles , 5 km
Cloud details: Partly cloudy 700 ft
Mostly cloudy 1800 ft
Overcast 2900 ft
2021/11/27 12:15 KCDA 271215Z AUTO 25014G18KT 3SM -SN SCT007 BKN018 OVC029 M05/M07 A2956 RMK AO2 T10531071
 
K1P1 - Plymouth, New Hampshire, USA
Distance from station: SSE 31mi, 49km
Updated: 11/27/2021 7:15am
Light snow, Overcast
Light snow, Overcast
 Wind from W
Wind: W 16 mph , 26 km/h, Gust: 33 mph , 54 km/h
Temperature: 27°F , -3°C
Wind Chill: 15°F , -9°C
Dew Point: 21°F , -6°C
Humidity: 80%
Barometer: 29.55 inHg , 1000.7 hPa
Summary: Light Snow
Clouds: Overcast
Visibility: 2 1/2 miles , 4 km
Cloud details: Mostly cloudy 2300 ft
Overcast 2800 ft
2021/11/27 12:15 K1P1 271215Z AUTO 28014G29KT 2 1/2SM -SN BKN023 OVC028 M03/M06 A2955 RMK AO2 T10261059
KMWN - Mount Washington, New Hampshire, USA
Distance from station: E 31mi, 49km
Updated: 11/27/2021 5:58am
NOT Current
Light snow, Blowing, Snow, Freezing, Fog, Overcast
Light snow, Blowing, Snow, Freezing, Fog, Overcast
 Wind from WNW
Wind: WNW 84 mph , 135 km/h, Gust: 92 mph , 148 km/h
Temperature: 5°F , -15°C
Wind Chill: -29°F , -34°C
Dew Point: 5°F , -15°C
Humidity: 100%
Summary: Light snow, Blowing, Snow, Freezing, Fog
Clouds: Overcast
Visibility: 0 miles , 0 km
Cloud details: Overcast 0 ft
2021/11/27 10:58 KMWN 271058Z 30073G80KT 0SM -SN BLSN FZFG VV000 M15/M15 RMK PK WND 30089/05 VRY LGT ICG
KMPV - Montpelier/Barre, Vermont, USA
Distance from station: W 32mi, 52km
Updated: 11/27/2021 7:15am
Light snow, Overcast
Light snow, Overcast
 Wind from NW
Wind: NW 22 mph , 35 km/h, Gust: 40 mph , 65 km/h
Temperature: 25°F , -4°C
Wind Chill: 10°F , -12°C
Dew Point: 19°F , -7°C
Humidity: 80%
Barometer: 29.62 inHg , 1003 hPa
Summary: Light Snow
Clouds: Overcast
Visibility: 2 1/2 miles , 4 km
Cloud details: Overcast 1500 ft
2021/11/27 12:15 KMPV 271215Z AUTO 32019G35KT 2 1/2SM -SN OVC015 M04/M07 A2962 RMK AO2 PK WND 30035/1209 P0000 T10441072
 
KMVL - Morrisville, Vermont, USA
Distance from station: WNW 41mi, 66km
Updated: 11/27/2021 7:21am
Light snow, Overcast
Light snow, Overcast
 Wind from NW
Wind: NW 12 mph , 19 km/h, Gust: 21 mph , 33 km/h
Temperature: 25°F , -4°C
Wind Chill: 14°F , -10°C
Dew Point: 18°F , -8°C
Humidity: 74%
Barometer: 29.65 inHg , 1004.1 hPa
Summary: Light Snow
Clouds: Overcast
Visibility: 2 1/2 miles , 4 km
Cloud details: Overcast 1800 ft
2021/11/27 12:21 KMVL 271221Z AUTO 32010G18KT 2 1/2SM -SN OVC018 M04/M08 A2965 RMK AO2 PK WND 32027/1156 P0000 T10441078
KBML - Berlin, New Hampshire, USA
Distance from station: NE 44mi, 71km
Updated: 11/27/2021 7:21am
Light snow, Overcast
Light snow, Overcast
 Wind from W
Wind: W 15 mph , 24 km/h, Gust: 30 mph , 48 km/h
Temperature: 25°F , -4°C
Wind Chill: 13°F , -11°C
Dew Point: 19°F , -7°C
Humidity: 80%
Barometer: 29.47 inHg , 998 hPa
Summary: Light Snow
Clouds: Overcast
Visibility: 3/4 mile , 1.2 km
Cloud details: Mostly cloudy 1500 ft
Mostly cloudy 2200 ft
Overcast 2700 ft
2021/11/27 12:21 KBML 271221Z AUTO 28013G26KT 260V330 3/4SM -SN BKN015 BKN022 OVC027 M04/M07 A2947 RMK AO2 PK WND 26026/1220 P0000 T10391072 $
KLEB - Lebanon, New Hampshire, USA
Distance from station: SSW 44mi, 71km
Updated: 11/27/2021 6:53am
Overcast
Overcast
 Wind from NW
Wind: NW 9 mph , 15 km/h
Temperature: 28°F , -2°C
Wind Chill: 19°F , -7°C
Dew Point: 19°F , -7°C
Humidity: 69%
Barometer: 29.61 inHg , 1002.7 hPa
Clouds: Overcast
Visibility: 10 miles , 16 km
Cloud details: Mostly cloudy 2900 ft
Overcast 3500 ft
2021/11/27 11:53 KLEB 271153Z 31008KT 10SM BKN029 OVC035 M02/M07 A2961 RMK AO2 SLP034 60000 70036 T10171072 10000 21017 53021
 
KEFK - Newport State, Vermont, USA
Distance from station: NNW 49mi, 79km
Updated: 11/27/2021 7:15am
Light snow, Overcast
Light snow, Overcast
 Wind from WNW
Wind: WNW 12 mph , 19 km/h, Gust: 20 mph , 31 km/h
Temperature: 23°F , -5°C
Wind Chill: 11°F , -12°C
Dew Point: 21°F , -6°C
Humidity: 93%
Barometer: 29.59 inHg , 1002 hPa
Summary: Light Snow
Clouds: Overcast
Visibility: 1 3/4 miles , 2.8 km
Cloud details: Overcast 1300 ft
2021/11/27 12:15 KEFK 271215Z AUTO 30010G17KT 1 3/4SM -SN OVC013 M05/M06 A2959 RMK AO2 T10531065
KIZG - Fryeburg, Maine, USA
Distance from station: ESE 50mi, 81km
Updated: 11/27/2021 6:54am
Few Clouds
Few Clouds
 Wind from W
Wind: W 21 mph , 33 km/h, Gust: 36 mph , 57 km/h
Temperature: 30°F , -1°C
Wind Chill: 17°F , -8°C
Dew Point: 19°F , -7°C
Humidity: 64%
Barometer: 29.43 inHg , 996.6 hPa
Clouds: Few Clouds
Visibility: 10 miles , 16 km
Cloud details: Few Clouds 12000 ft
2021/11/27 11:54 KIZG 271154Z AUTO 28018G31KT 10SM FEW120 M01/M07 A2943 RMK AO2 PK WND 28035/1131 SLP972 60000 70017 T10111072 10017 21011 53022
KLCI - Laconia Muni, New Hampshire, USA
Distance from station: SSE 51mi, 82km
Updated: 11/27/2021 6:56am
Overcast
Overcast
 Wind from WNW
Wind: WNW 12 mph , 19 km/h, Gust: 22 mph , 35 km/h
Temperature: 28°F , -2°C
Wind Chill: 18°F , -8°C
Dew Point: 21°F , -6°C
Humidity: 74%
Barometer: 29.54 inHg , 1000.3 hPa
Clouds: Overcast
Visibility: 10 miles , 16 km
Cloud details: Mostly cloudy 2700 ft
Overcast 3400 ft
2021/11/27 11:56 KLCI 271156Z AUTO 29010G19KT 10SM BKN027 OVC034 M02/M06 A2954 RMK AO2 SLP009 60000 70017 T10221061 10011 21022 53024 FZRANO
 
K6B0 - Middlebury, Vermont, USA
Distance from station: WSW 61mi, 98km
Updated: 11/27/2021 7:15am
Overcast
Overcast
 Wind from N
Wind: N 3 mph , 6 km/h
Temperature: 25°F , -4°C
Dew Point: 21°F , -6°C
Humidity: 86%
Barometer: 29.69 inHg , 1005.4 hPa
Clouds: Overcast
Visibility: 10 miles , 16 km
Cloud details: Partly cloudy 2700 ft
Overcast 3500 ft
2021/11/27 12:15 K6B0 271215Z AUTO 36003KT 10SM SCT027 OVC035 M04/M06 A2969 RMK AO2 T10421060
KBTV - Burlington, Vermont, USA
Distance from station: WNW 63mi, 102km
Updated: 11/27/2021 7:03am
Light snow, Overcast
Light snow, Overcast
 Wind from NW
Wind: NW 22 mph , 35 km/h, Gust: 30 mph , 48 km/h
Temperature: 27°F , -3°C
Wind Chill: 13°F , -11°C
Dew Point: 19°F , -7°C
Humidity: 74%
Barometer: 29.70 inHg , 1005.8 hPa
Summary: Light Snow
Clouds: Overcast
Visibility: 9 miles , 14 km
Cloud details: Overcast 2800 ft
2021/11/27 12:03 KBTV 271203Z 32019G26KT 9SM -SN OVC028 M03/M07 A2970 RMK AO2 PK WND 33026/1201 P0000 T10331072 $
KVSF - Springfield, Vermont, USA
Distance from station: SSW 67mi, 107km
Updated: 11/27/2021 6:54am
Overcast
Overcast
 Wind from WNW
Wind: WNW 17 mph , 28 km/h, Gust: 26 mph , 43 km/h
Temperature: 28°F , -2°C
Wind Chill: 16°F , -9°C
Dew Point: 19°F , -7°C
Humidity: 69%
Barometer: 29.63 inHg , 1003.4 hPa
Clouds: Overcast
Visibility: 10 miles , 16 km
Cloud details: Overcast 2300 ft
2021/11/27 11:54 KVSF 271154Z AUTO 29015G23KT 10SM OVC023 M02/M07 A2963 RMK AO2 SLP039 60000 70023 T10171067 11006 21017 53018
 
KRUT - Rutland State, Vermont, USA
Distance from station: SW 70mi, 113km
Updated: 11/27/2021 6:56am
Light snow, Overcast
Light snow, Overcast
 Wind from W
Wind: W 16 mph , 26 km/h, Gust: 22 mph , 35 km/h
Temperature: 25°F , -4°C
Wind Chill: 12°F , -11°C
Dew Point: 21°F , -6°C
Humidity: 86%
Barometer: 29.66 inHg , 1004.4 hPa
Summary: Light Snow
Clouds: Overcast
Visibility: 9 miles , 14 km
Cloud details: Overcast 2300 ft
2021/11/27 11:56 KRUT 271156Z AUTO 28014G19KT 9SM -SN OVC023 M04/M06 A2966 RMK AO2 SLPNO P0000 60000 70035 T10441056 11028 21044 53021 FZRANO $
CWFQ - Frelighsburg, Quebec, Canada
Distance from station: NW 72mi, 116km
Updated: 11/27/2021 7:00am

 Wind from WNW
Wind: WNW 6 mph , 9 km/h
Temperature: 21°F , -6°C
Wind Chill: 13°F , -11°C
Dew Point: 19°F , -7°C
Humidity: 93%
2021/11/27 12:00 CWFQ 271200Z AUTO 30005KT M06/M07 RMK AO1 SOG 10 3017 PK WND 33018/1118 SLP038 T10571069
KCON - Concord, New Hampshire, USA
Distance from station: SSE 73mi, 117km
Updated: 11/27/2021 6:51am
Overcast
Overcast
 Wind from WNW
Wind: WNW 16 mph , 26 km/h, Gust: 28 mph , 44 km/h
Temperature: 30°F , -1°C
Wind Chill: 19°F , -7°C
Dew Point: 21°F , -6°C
Humidity: 69%
Barometer: 29.56 inHg , 1001 hPa
Clouds: Overcast
Visibility: 10 miles , 16 km
Cloud details: Mostly cloudy 3000 ft
Overcast 3600 ft
2021/11/27 11:51 KCON 271151Z AUTO 29014G24KT 10SM BKN030 OVC036 M01/M06 A2956 RMK AO2 PK WND 31029/1138 SLP015 70038 T10061056 10011 21006 53024
 
CWTT - Lac Memphremagog, Quebec, Canada
Distance from station: N 74mi, 119km
Updated: 11/27/2021 7:00am

 Wind from WNW
Wind: WNW 21 mph , 33 km/h, Gust: 29 mph , 46 km/h
Temperature: 25°F , -4°C
Wind Chill: 10°F , -12°C
Dew Point: 19°F , -7°C
Humidity: 80%
2021/11/27 12:00 CWTT 271200Z AUTO 30018G25KT M04/M07 RMK AO1 PK WND 29028/1127 T10411069
KFSO - Highgate, Vermont, USA
Distance from station: NW 77mi, 123km
Updated: 11/27/2021 7:15am
Overcast
Overcast
 Wind from W
Wind: W 7 mph , 11 km/h
Temperature: 25°F , -4°C
Wind Chill: 17°F , -8°C
Dew Point: 23°F , -5°C
Humidity: 93%
Barometer: 29.69 inHg , 1005.4 hPa
Clouds: Overcast
Visibility: 10 miles , 16 km
Cloud details: Partly cloudy 1700 ft
Partly cloudy 2300 ft
Overcast 2900 ft
2021/11/27 12:15 KFSO 271215Z AUTO 28006KT 10SM SCT017 SCT023 OVC029 M04/M05 A2969 RMK AO2 T10391052